Air Navigation Services of Czech Republic
Airport: LKPD Updated:  24.07.2021 07:26:28  UTC
 METAR LKPD 24.07. 07:30 ...
METAR LKPD 240730Z 10006KT CAVOK 23/13 Q1014 NOSIG RMK BLU BLU=
 TAF LKPD 24.07. 05:00 ...
TAF LKPD 240500Z 2406/2506 VRB02KT CAVOK      BECMG 2407/2410 09009KT      BECMG 2423/2502 BKN030      TEMPO 2502/2506 15015KT 6000 SHRA BKN023CB=